Time;durP1;ratioP1;P1;durP2;ratioP2;P2;SDS_P1;SDS_P2;PMS_P1;PMS_P2;Temp;Humidity;BMP_temperature;BMP_pressure;BME280_temperature;BME280_humidity;BME280_pressure;Samples;Min_cycle;Max_cycle;Signal;HPM_P1;HPM_P2
2021/09/29 00:01:36;;;;;;;3.83;3.03;;;;;;;11.41;100.00;99212.16;4973714;28;19922;-84
2021/09/29 00:04:03;;;;;;;4.63;3.60;;;;;;;11.40;100.00;99215.91;4973894;28;20234;-84
2021/09/29 00:06:30;;;;;;;5.43;3.00;;;;;;;11.61;100.00;99226.00;4972256;28;20102;-84
2021/09/29 00:08:58;;;;;;;7.88;3.10;;;;;;;11.53;100.00;99209.75;4954092;29;20495;-83
2021/09/29 00:11:26;;;;;;;6.32;3.60;;;;;;;11.68;100.00;99226.06;4954657;29;20043;-84
2021/09/29 00:13:53;;;;;;;5.93;3.50;;;;;;;11.57;100.00;99193.91;4970577;28;20299;-84
2021/09/29 00:16:20;;;;;;;4.75;3.47;;;;;;;11.50;100.00;99213.72;4973352;28;20055;-84
2021/09/29 00:18:51;;;;;;;6.43;3.70;;;;;;;11.66;100.00;99225.44;4973298;28;20134;-83
2021/09/29 00:21:17;;;;;;;5.22;3.42;;;;;;;11.61;100.00;99209.66;4973789;28;20149;-83
2021/09/29 00:23:46;;;;;;;6.22;3.33;;;;;;;11.72;100.00;99230.13;4972546;28;20509;-83
2021/09/29 00:26:13;;;;;;;5.78;3.67;;;;;;;11.73;100.00;99228.22;4972946;28;20059;-83
2021/09/29 00:28:40;;;;;;;6.00;4.00;;;;;;;11.74;100.00;99228.03;4973399;28;20553;-84
2021/09/29 00:31:16;;;;;;;4.45;3.42;;;;;;;11.83;100.00;99226.91;4973714;28;20050;-84
2021/09/29 00:33:46;;;;;;;5.90;3.72;;;;;;;11.79;100.00;99227.50;4973307;28;20411;-84
2021/09/29 00:36:14;;;;;;;6.20;3.50;;;;;;;11.73;100.00;99206.44;4972843;28;20062;-84
2021/09/29 00:38:41;;;;;;;7.78;3.95;;;;;;;11.77;100.00;99208.63;4972953;28;20105;-83
2021/09/29 00:41:08;;;;;;;5.97;4.28;;;;;;;11.86;100.00;99220.22;4973833;28;20204;-84
2021/09/29 00:43:35;;;;;;;6.20;4.00;;;;;;;11.80;100.00;99201.91;4972898;28;20584;-84
2021/09/29 00:46:02;;;;;;;8.43;3.83;;;;;;;11.89;100.00;99203.50;4972944;28;20077;-84
2021/09/29 00:48:29;;;;;;;8.07;4.03;;;;;;;11.91;100.00;99212.31;4973354;28;20491;-84
2021/09/29 00:50:56;;;;;;;5.63;3.33;;;;;;;11.86;100.00;99198.41;4973331;28;20059;-84
2021/09/29 00:53:24;;;;;;;4.82;3.70;;;;;;;11.84;100.00;99189.63;4972845;28;20043;-84
2021/09/29 00:55:51;;;;;;;6.65;3.38;;;;;;;11.94;100.00;99211.09;4973057;28;20491;-84
2021/09/29 00:58:18;;;;;;;5.50;3.92;;;;;;;11.86;100.00;99203.88;4972627;28;20051;-83
2021/09/29 01:00:45;;;;;;;9.60;4.00;;;;;;;11.88;100.00;99207.28;4972876;28;20486;-83
2021/09/29 01:03:11;;;;;;;4.78;3.30;;;;;;;11.83;100.00;99194.22;4972831;28;20047;-84
2021/09/29 01:05:42;;;;;;;5.97;3.70;;;;;;;11.96;100.00;99198.16;4972985;28;20113;-83
2021/09/29 01:08:13;;;;;;;5.22;3.88;;;;;;;11.90;100.00;99182.56;4972923;28;20043;-83
2021/09/29 01:10:49;;;;;;;11.43;4.82;;;;;;;11.99;100.00;99203.22;4972749;28;20047;-84
2021/09/29 01:13:23;;;;;;;8.60;4.28;;;;;;;11.98;100.00;99202.38;4972499;28;20050;-84
2021/09/29 01:15:54;;;;;;;6.63;3.35;;;;;;;11.91;100.00;99184.22;4965148;28;20066;-84
2021/09/29 01:18:23;;;;;;;5.05;3.88;;;;;;;11.85;100.00;99177.69;4972911;28;20062;-84
2021/09/29 01:20:54;;;;;;;6.07;4.00;;;;;;;11.89;100.00;99194.47;4972916;28;20467;-83
2021/09/29 01:23:36;;;;;;;7.60;4.18;;;;;;;11.94;100.00;99206.53;4972888;28;20101;-84
2021/09/29 01:26:12;;;;;;;5.85;4.15;;;;;;;12.00;100.00;99210.38;4972214;28;20046;-83
2021/09/29 01:28:43;;;;;;;5.20;3.65;;;;;;;11.90;100.00;99193.44;4973016;28;20147;-83
2021/09/29 01:31:10;;;;;;;7.68;3.80;;;;;;;11.98;100.00;99196.94;4972543;28;20422;-83
2021/09/29 01:33:39;;;;;;;6.20;3.85;;;;;;;12.06;100.00;99208.72;4972620;28;20430;-84
2021/09/29 01:36:06;;;;;;;7.10;4.50;;;;;;;12.03;99.55;99204.53;4972291;28;20066;-84
2021/09/29 01:38:38;;;;;;;8.05;3.90;;;;;;;12.06;99.74;99200.56;4974048;28;20153;-83
2021/09/29 01:41:04;;;;;;;5.53;4.40;;;;;;;11.97;98.74;99197.97;4976376;28;20542;-83
2021/09/29 01:43:33;;;;;;;5.65;4.20;;;;;;;12.09;98.39;99203.75;4975595;28;20476;-83
2021/09/29 01:46:01;;;;;;;8.23;4.28;;;;;;;12.07;98.06;99207.69;4975556;28;20490;-84
2021/09/29 01:48:27;;;;;;;8.07;4.57;;;;;;;12.05;99.06;99199.72;4975693;28;20050;-83
2021/09/29 01:50:59;;;;;;;7.63;4.90;;;;;;;12.16;99.85;99209.25;4975653;28;20059;-84
2021/09/29 01:53:32;;;;;;;6.20;4.13;;;;;;;11.98;100.00;99186.03;4975909;28;20439;-83
2021/09/29 01:55:59;;;;;;;7.07;4.10;;;;;;;12.01;100.00;99191.09;4975317;28;20046;-83
2021/09/29 01:58:30;;;;;;;6.93;4.32;;;;;;;12.00;100.00;99205.75;4975621;28;20096;-84
2021/09/29 02:01:08;;;;;;;5.95;4.43;;;;;;;12.03;100.00;99208.09;4975921;28;20055;-83
2021/09/29 02:03:58;;;;;;;5.25;3.88;;;;;;;12.07;100.00;99197.63;4975599;28;20062;-83
2021/09/29 02:06:24;;;;;;;;;;;;;;;12.04;100.00;99209.78;4975672;28;20057;-83
2021/09/29 02:08:51;;;;;;;7.90;4.47;;;;;;;11.97;100.00;99205.31;4975602;28;20259;-83
2021/09/29 02:25:38;;;;;;;10.38;4.65;;;;;;;11.60;100.00;99207.97;4826471;29;20092;-83
2021/09/29 02:28:14;;;;;;;;;;;;;;;11.53;100.00;99215.22;4840776;29;20470;-84
2021/09/29 02:31:26;;;;;;;8.38;5.03;;;;;;;11.43;100.00;99201.06;4859317;29;20027;-83
2021/09/29 02:33:53;;;;;;;7.68;5.10;;;;;;;11.56;100.00;99214.84;4896527;29;20135;-83
2021/09/29 02:36:20;;;;;;;7.43;5.10;;;;;;;11.62;100.00;99214.09;4897879;29;20188;-83
2021/09/29 02:38:57;;;;;;;6.93;4.72;;;;;;;11.44;100.00;99194.56;4946175;28;20051;-83
2021/09/29 02:42:11;;;;;;;6.45;5.38;;;;;;;11.49;100.00;99211.19;4975399;28;20118;-83
2021/09/29 02:44:39;;;;;;;5.40;4.47;;;;;;;11.58;100.00;99220.09;4962311;28;20082;-83
2021/09/29 02:49:49;;;;;;;7.63;4.93;;;;;;;11.78;100.00;99229.34;4970495;28;20575;-84
2021/09/29 02:52:19;;;;;;;6.22;4.85;;;;;;;11.68;100.00;99218.78;4974647;28;20066;-84
2021/09/29 02:55:30;;;;;;;6.80;4.90;;;;;;;11.66;100.00;99220.81;4974335;28;20070;-83
2021/09/29 02:57:56;;;;;;;10.85;4.97;;;;;;;11.80;100.00;99240.06;4971266;28;20059;-83
2021/09/29 03:00:25;;;;;;;7.22;5.03;;;;;;;11.89;100.00;99238.91;4974477;28;20125;-84
2021/09/29 03:02:51;;;;;;;9.85;5.18;;;;;;;11.88;100.00;99237.22;4974265;28;20109;-84
2021/09/29 03:05:18;;;;;;;8.90;4.82;;;;;;;11.90;100.00;99234.31;4973984;28;20058;-84
2021/09/29 03:07:47;;;;;;;6.78;4.93;;;;;;;11.84;100.00;99227.75;4974675;28;20105;-83
2021/09/29 03:10:14;;;;;;;6.22;5.00;;;;;;;11.72;100.00;99230.13;4975144;28;20057;-83
2021/09/29 03:12:41;;;;;;;9.23;5.38;;;;;;;11.65;100.00;99235.50;4974502;28;20047;-84
2021/09/29 03:15:09;;;;;;;8.25;5.15;;;;;;;11.81;100.00;99247.19;4974487;28;20055;-84
2021/09/29 03:20:39;;;;;;;9.15;5.03;;;;;;;11.83;100.00;99251.44;4920708;28;20055;-84
2021/09/29 03:23:05;;;;;;;8.35;5.53;;;;;;;11.67;100.00;99221.69;4974486;28;20121;-84
2021/09/29 03:25:33;;;;;;;6.07;4.50;;;;;;;11.62;100.00;99243.19;4956760;28;20442;-84
2021/09/29 03:28:00;;;;;;;6.93;4.50;;;;;;;11.62;100.00;99256.78;4974136;28;20054;-84
2021/09/29 03:30:27;;;;;;;7.95;4.78;;;;;;;11.63;100.00;99255.78;4974059;28;20050;-83
2021/09/29 03:32:55;;;;;;;6.43;4.95;;;;;;;11.49;100.00;99241.97;4973846;28;20051;-83
2021/09/29 03:35:23;;;;;;;8.90;4.97;;;;;;;11.69;100.00;99260.44;4973277;28;20047;-83
2021/09/29 03:37:50;;;;;;;8.65;4.40;;;;;;;11.48;100.00;99245.72;4973939;28;20054;-84
2021/09/29 03:40:18;;;;;;;8.27;4.75;;;;;;;11.43;100.00;99267.22;4974189;28;20043;-85
2021/09/29 03:42:45;;;;;;;9.00;4.70;;;;;;;11.27;100.00;99251.91;4974339;28;20105;-84
2021/09/29 03:45:13;;;;;;;9.45;5.57;;;;;;;11.32;100.00;99273.13;4973946;28;20050;-84
2021/09/29 03:47:42;;;;;;;6.85;5.25;;;;;;;11.39;100.00;99273.25;4973779;28;20099;-84
2021/09/29 03:50:12;;;;;;;7.93;5.82;;;;;;;11.44;100.00;99268.06;4973725;28;20047;-84
2021/09/29 03:52:54;;;;;;;14.18;5.85;;;;;;;11.38;100.00;99266.97;4974165;28;20094;-84
2021/09/29 03:58:57;;;;;;;10.10;6.35;;;;;;;11.15;100.00;99254.28;4908617;29;20059;-84
2021/09/29 04:07:59;;;;;;;8.18;6.07;;;;;;;11.14;100.00;99251.72;4954163;28;20046;-83
2021/09/29 04:10:26;;;;;;;8.52;5.60;;;;;;;11.18;100.00;99272.09;4961812;28;20062;-83
2021/09/29 04:12:53;;;;;;;10.85;6.50;;;;;;;11.21;100.00;99279.06;4973438;28;20073;-81
2021/09/29 04:15:21;;;;;;;11.38;6.65;;;;;;;11.21;100.00;99273.59;4973573;28;20055;-86
2021/09/29 04:17:48;;;;;;;9.95;6.53;;;;;;;11.24;100.00;99270.50;4973233;28;20508;-85
2021/09/29 04:20:15;;;;;;;14.07;6.70;;;;;;;11.06;100.00;99271.69;4973732;28;20138;-85
2021/09/29 04:22:43;;;;;;;12.23;6.55;;;;;;;10.94;100.00;99263.19;4973465;28;20081;-85
2021/09/29 04:25:11;;;;;;;9.68;6.53;;;;;;;11.00;100.00;99269.72;4973940;28;20062;-85
2021/09/29 04:27:40;;;;;;;8.75;5.97;;;;;;;10.82;100.00;99272.78;4973513;28;20486;-85
2021/09/29 04:30:08;;;;;;;8.20;6.60;;;;;;;10.89;100.00;99273.75;4973509;28;20061;-85
2021/09/29 04:32:35;;;;;;;9.32;6.50;;;;;;;10.89;100.00;99270.19;4973974;28;20518;-86
2021/09/29 04:35:02;;;;;;;11.43;7.43;;;;;;;10.91;100.00;99276.28;4973661;28;20053;-84
2021/09/29 04:37:29;;;;;;;11.52;6.50;;;;;;;10.80;100.00;99281.13;4972885;28;20050;-84
2021/09/29 04:39:57;;;;;;;14.27;6.45;;;;;;;10.78;100.00;99269.59;4956069;28;20053;-83
2021/09/29 04:42:24;;;;;;;13.27;6.63;;;;;;;10.86;100.00;99279.56;4973842;28;20053;-84
2021/09/29 04:44:51;;;;;;;8.82;6.60;;;;;;;10.83;100.00;99270.94;4972776;28;20076;-83
2021/09/29 04:47:18;;;;;;;8.15;6.32;;;;;;;10.88;100.00;99276.66;4973543;28;20328;-84
2021/09/29 04:49:45;;;;;;;10.80;6.78;;;;;;;10.92;100.00;99288.84;4973307;28;20246;-84
2021/09/29 04:52:13;;;;;;;8.93;6.68;;;;;;;10.77;100.00;99286.09;4973469;28;20063;-85
2021/09/29 04:54:41;;;;;;;9.70;6.90;;;;;;;10.92;100.00;99299.75;4972620;28;20054;-84
2021/09/29 04:57:10;;;;;;;9.07;6.07;;;;;;;10.86;100.00;99292.31;4973193;28;20076;-84
2021/09/29 04:59:37;;;;;;;11.00;5.70;;;;;;;10.89;100.00;99303.66;4972989;28;20066;-84
2021/09/29 05:02:05;;;;;;;12.93;6.50;;;;;;;10.84;100.00;99286.19;4973024;28;20082;-84
2021/09/29 05:04:32;;;;;;;11.90;7.03;;;;;;;10.87;100.00;99302.16;4973060;28;20129;-84
2021/09/29 05:07:00;;;;;;;16.85;7.35;;;;;;;10.77;100.00;99292.38;4973077;28;20059;-84
2021/09/29 05:09:29;;;;;;;8.10;6.32;;;;;;;10.67;100.00;99296.38;4967339;28;20047;-84
2021/09/29 05:12:03;;;;;;;9.88;6.53;;;;;;;10.67;100.00;99288.22;4973526;28;20050;-84
2021/09/29 05:14:32;;;;;;;8.70;5.65;;;;;;;10.66;100.00;99298.25;4977050;28;20050;-86
2021/09/29 05:16:59;;;;;;;9.48;6.60;;;;;;;10.58;100.00;99292.88;4976994;28;20057;-85
2021/09/29 05:19:26;;;;;;;10.18;6.95;;;;;;;10.70;100.00;99299.56;4976973;28;20435;-85
2021/09/29 05:21:54;;;;;;;9.30;7.18;;;;;;;10.68;100.00;99298.91;4976450;28;20049;-84
2021/09/29 05:24:21;;;;;;;10.10;6.78;;;;;;;10.64;100.00;99303.00;4976119;28;20133;-84
2021/09/29 05:26:48;;;;;;;12.55;6.90;;;;;;;10.56;100.00;99308.53;4976499;28;20462;-85
2021/09/29 05:29:19;;;;;;;10.68;6.07;;;;;;;10.39;100.00;99296.94;4976357;28;20102;-85
2021/09/29 05:31:47;;;;;;;8.15;6.25;;;;;;;10.38;100.00;99308.81;4977084;28;20055;-84
2021/09/29 05:34:14;;;;;;;8.73;5.63;;;;;;;10.27;100.00;99291.03;4976181;28;20055;-85
2021/09/29 05:36:45;;;;;;;12.23;6.22;;;;;;;10.31;100.00;99310.53;4976207;28;20517;-85
2021/09/29 05:39:12;;;;;;;7.50;6.07;;;;;;;10.17;100.00;99298.56;4976307;28;20467;-85
2021/09/29 05:41:39;;;;;;;8.90;5.68;;;;;;;10.30;100.00;99287.09;4975812;28;20043;-85
2021/09/29 05:44:06;;;;;;;5.88;4.38;;;;;;;10.28;100.00;99292.72;4975741;28;20494;-84
2021/09/29 05:46:33;;;;;;;8.23;5.03;;;;;;;10.18;100.00;99284.81;4976295;28;20051;-82
2021/09/29 05:49:01;;;;;;;7.85;5.25;;;;;;;10.22;100.00;99294.28;4976117;28;20105;-82
2021/09/29 05:51:28;;;;;;;8.73;5.22;;;;;;;10.12;100.00;99298.25;4975962;28;20054;-82
2021/09/29 05:53:55;;;;;;;8.70;4.95;;;;;;;10.11;100.00;99302.84;4975670;28;20055;-82
2021/09/29 05:56:22;;;;;;;8.55;5.43;;;;;;;9.98;100.00;99319.72;4975534;28;20047;-83
2021/09/29 05:58:49;;;;;;;6.43;5.10;;;;;;;9.95;100.00;99321.94;4975317;28;20078;-83
2021/09/29 06:01:16;;;;;;;10.35;5.47;;;;;;;9.88;100.00;99317.22;4975617;28;20490;-84
2021/09/29 06:03:43;;;;;;;7.45;5.70;;;;;;;9.91;100.00;99316.03;4976032;28;20042;-85
2021/09/29 06:06:11;;;;;;;9.02;6.20;;;;;;;9.91;100.00;99307.88;4975625;28;20051;-84
2021/09/29 06:08:38;;;;;;;9.20;5.40;;;;;;;9.99;100.00;99318.69;4975616;28;20079;-84
2021/09/29 06:11:05;;;;;;;11.07;6.40;;;;;;;10.17;100.00;99344.75;4976077;28;20479;-83
2021/09/29 06:13:32;;;;;;;14.85;6.63;;;;;;;10.28;100.00;99336.19;4974797;28;20146;-84
2021/09/29 06:16:06;;;;;;;11.57;6.38;;;;;;;10.37;100.00;99332.44;4975187;28;20387;-84
2021/09/29 06:18:36;;;;;;;12.45;7.03;;;;;;;10.50;100.00;99331.84;4975343;28;20126;-84
2021/09/29 06:21:07;;;;;;;9.55;6.22;;;;;;;10.56;100.00;99344.72;4975745;28;20077;-83
2021/09/29 06:23:38;;;;;;;9.60;6.07;;;;;;;10.57;100.00;99330.09;4975987;28;20519;-82
2021/09/29 06:26:07;;;;;;;10.20;5.85;;;;;;;10.51;100.00;99316.38;4976330;28;20125;-83
2021/09/29 06:28:38;;;;;;;8.32;5.88;;;;;;;10.78;100.00;99345.75;4974543;28;20054;-82
2021/09/29 06:31:06;;;;;;;15.60;6.63;;;;;;;10.94;100.00;99338.47;4974887;28;20114;-83
2021/09/29 06:33:33;;;;;;;12.52;6.65;;;;;;;11.05;100.00;99320.84;4974913;28;20049;-82
2021/09/29 06:36:00;;;;;;;12.52;6.70;;;;;;;11.33;100.00;99318.38;4974695;28;20043;-82
2021/09/29 06:38:27;;;;;;;8.65;6.35;;;;;;;11.54;100.00;99342.16;4975069;28;20054;-82
2021/09/29 06:40:56;;;;;;;9.45;6.13;;;;;;;11.61;100.00;99320.47;4974473;28;20078;-83
2021/09/29 06:43:22;;;;;;;13.88;6.10;;;;;;;11.77;100.00;99333.03;4975167;28;20105;-82
2021/09/29 06:45:50;;;;;;;13.43;6.85;;;;;;;12.02;100.00;99339.06;4974220;28;20582;-83
2021/09/29 06:48:17;;;;;;;14.63;6.20;;;;;;;12.09;100.00;99345.44;4974957;28;20047;-83
2021/09/29 06:50:44;;;;;;;9.75;5.82;;;;;;;12.10;100.00;99349.00;4974958;28;20503;-83
2021/09/29 06:53:18;;;;;;;8.43;6.18;;;;;;;12.10;100.00;99346.28;4974890;28;20062;-83
2021/09/29 06:55:45;;;;;;;12.50;6.55;;;;;;;11.99;100.00;99342.16;4974207;28;20051;-83
2021/09/29 06:58:13;;;;;;;11.73;5.68;;;;;;;12.02;100.00;99330.91;4974970;28;20050;-83
2021/09/29 07:00:40;;;;;;;10.43;5.72;;;;;;;12.17;100.00;99339.88;4973794;28;20043;-82
2021/09/29 07:03:08;;;;;;;15.15;6.00;;;;;;;12.36;100.00;99346.63;4974531;28;20055;-83
2021/09/29 07:05:35;;;;;;;15.15;5.20;;;;;;;12.41;100.00;99328.84;4974392;28;20116;-83
2021/09/29 07:08:02;;;;;;;14.75;5.82;;;;;;;12.64;100.00;99350.47;4974618;28;20054;-83
2021/09/29 07:10:29;;;;;;;8.15;5.95;;;;;;;12.88;98.28;99351.97;4974216;28;20047;-83
2021/09/29 07:12:57;;;;;;;13.20;5.22;;;;;;;13.07;97.34;99332.19;4974197;28;20517;-83
2021/09/29 07:15:27;;;;;;;7.88;5.88;;;;;;;13.53;95.98;99346.44;4974091;28;20483;-83
2021/09/29 07:17:58;;;;;;;7.82;4.65;;;;;;;13.70;93.21;99320.50;4974142;28;20059;-83
2021/09/29 07:20:25;;;;;;;6.05;4.25;;;;;;;14.15;91.01;99345.53;4974474;28;20141;-83
2021/09/29 07:22:54;;;;;;;12.32;5.13;;;;;;;14.34;88.43;99330.22;4974075;28;20070;-83
2021/09/29 07:25:21;;;;;;;12.88;4.28;;;;;;;14.42;86.62;99347.50;4973905;28;20065;-83
2021/09/29 07:27:48;;;;;;;9.35;4.55;;;;;;;14.45;88.10;99352.56;4973974;28;20051;-83
2021/09/29 07:30:15;;;;;;;8.70;4.13;;;;;;;14.48;88.52;99352.16;4974023;28;20050;-83
2021/09/29 07:32:45;;;;;;;9.70;4.47;;;;;;;14.67;86.83;99347.81;4973967;28;20042;-83
2021/09/29 07:35:13;;;;;;;7.22;3.22;;;;;;;14.62;84.42;99334.75;4973745;28;20513;-84
2021/09/29 07:37:40;;;;;;;11.45;3.10;;;;;;;14.74;84.48;99331.41;4973930;28;20101;-83
2021/09/29 07:40:09;;;;;;;3.50;2.65;;;;;;;14.82;83.92;99350.38;4974035;28;20141;-83
2021/09/29 07:42:36;;;;;;;5.97;2.88;;;;;;;14.89;83.18;99342.16;4973926;28;20055;-83
2021/09/29 07:45:04;;;;;;;8.07;2.85;;;;;;;14.86;82.60;99325.13;4973539;28;20106;-83
2021/09/29 07:47:31;;;;;;;5.68;2.22;;;;;;;14.99;82.43;99342.59;4973591;28;20127;-83
2021/09/29 07:50:00;;;;;;;5.43;2.70;;;;;;;14.98;82.81;99328.09;4972971;28;20051;-83
2021/09/29 07:52:27;;;;;;;5.65;2.15;;;;;;;14.90;82.06;99336.47;4973844;28;20050;-83
2021/09/29 07:54:53;;;;;;;5.00;1.67;;;;;;;14.83;82.20;99330.19;4973756;28;20059;-83
2021/09/29 07:57:20;;;;;;;9.63;1.70;;;;;;;14.93;79.77;99340.72;4973356;28;20050;-83
2021/09/29 07:59:47;;;;;;;8.75;1.48;;;;;;;15.01;79.24;99332.31;4973413;28;20521;-83
2021/09/29 08:02:14;;;;;;;4.00;1.05;;;;;;;15.04;76.59;99331.88;4973559;28;20150;-83
2021/09/29 08:04:41;;;;;;;3.17;1.10;;;;;;;14.97;75.00;99328.28;4973193;28;20051;-83
2021/09/29 08:07:28;;;;;;;2.70;1.25;;;;;;;14.93;75.58;99347.00;5192237;27;20386;-82
2021/09/29 08:09:55;;;;;;;6.07;1.58;;;;;;;14.95;76.45;99346.81;5171881;27;20054;-81
2021/09/29 08:12:22;;;;;;;3.58;1.30;;;;;;;14.86;76.31;99340.72;5172669;27;20055;-82
2021/09/29 08:14:49;;;;;;;6.00;1.10;;;;;;;14.85;75.11;99344.50;5171663;27;20054;-83
2021/09/29 08:17:16;;;;;;;6.07;1.60;;;;;;;14.90;74.81;99352.91;5170665;27;20046;-82
2021/09/29 08:19:43;;;;;;;4.05;1.13;;;;;;;14.91;74.60;99343.66;5171617;27;20050;-83
2021/09/29 08:22:11;;;;;;;3.75;1.85;;;;;;;15.11;76.00;99354.59;5171183;27;20078;-83
2021/09/29 08:24:45;;;;;;;8.45;1.70;;;;;;;15.16;76.32;99341.16;5171402;27;20082;-82
2021/09/29 08:27:17;;;;;;;3.92;0.95;;;;;;;15.24;75.60;99326.41;5171995;27;20050;-83
2021/09/29 08:29:54;;;;;;;2.13;1.27;;;;;;;15.48;75.72;99349.56;5171833;27;20060;-82
2021/09/29 08:32:25;;;;;;;7.65;1.20;;;;;;;15.56;74.35;99341.09;5172154;27;20046;-82
2021/09/29 08:34:59;;;;;;;5.20;1.48;;;;;;;15.58;73.54;99344.50;5170644;27;20091;-82
2021/09/29 08:37:32;;;;;;;4.47;1.00;;;;;;;15.65;72.46;99346.38;5170809;27;20077;-83
2021/09/29 08:40:10;;;;;;;7.10;1.08;;;;;;;15.70;71.15;99341.09;5171733;27;20057;-83
2021/09/29 08:42:44;;;;;;;4.40;0.90;;;;;;;15.72;69.98;99339.00;5171484;27;20070;-82
2021/09/29 08:45:14;;;;;;;5.18;1.30;;;;;;;15.71;71.14;99335.38;5170992;27;20409;-83
2021/09/29 08:47:49;;;;;;;5.70;0.90;;;;;;;15.91;71.42;99354.56;5172043;27;20043;-83
2021/09/29 08:50:23;;;;;;;3.97;1.02;;;;;;;15.90;71.28;99333.69;5160394;27;20055;-83
2021/09/29 08:53:11;;;;;;;3.75;1.33;;;;;;;16.03;69.70;99357.50;5153196;27;20055;-83
2021/09/29 08:55:51;;;;;;;4.55;1.42;;;;;;;16.17;68.65;99355.53;5169605;27;20042;-83
2021/09/29 09:17:40;;;;;;;3.10;0.88;;;;;;;16.79;65.36;99344.03;5164047;27;20078;-83
2021/09/29 09:20:17;;;;;;;4.07;1.05;;;;;;;16.99;64.77;99335.69;5156811;27;20039;-83
2021/09/29 09:22:46;;;;;;;2.45;0.85;;;;;;;16.93;64.92;99318.19;5152407;27;20053;-83
2021/09/29 09:25:13;;;;;;;2.83;1.45;;;;;;;17.11;65.49;99313.84;5155969;27;20053;-83
2021/09/29 09:27:49;;;;;;;6.45;1.20;;;;;;;17.17;64.85;99313.75;5156366;27;20056;-83
2021/09/29 09:30:27;;;;;;;8.65;1.08;;;;;;;17.09;62.26;99318.72;5156614;27;20046;-83
2021/09/29 09:32:56;;;;;;;2.42;0.93;;;;;;;17.32;61.28;99321.66;5156749;27;20107;-83
2021/09/29 09:35:24;;;;;;;1.42;0.60;;;;;;;17.42;59.09;99312.06;5155873;27;20166;-83
2021/09/29 09:37:55;;;;;;;4.00;0.65;;;;;;;17.88;58.48;99319.00;5154527;27;20046;-83
2021/09/29 09:40:23;;;;;;;4.53;0.70;;;;;;;17.96;57.56;99309.63;5156725;27;20054;-83
2021/09/29 09:42:56;;;;;;;4.55;0.98;;;;;;;17.88;56.52;99302.50;5156751;27;20049;-83
2021/09/29 09:45:33;;;;;;;4.85;0.80;;;;;;;17.88;56.76;99310.75;5155873;27;20055;-83
2021/09/29 09:48:00;;;;;;;7.07;0.70;;;;;;;17.49;56.00;99321.09;5137781;27;20134;-83
2021/09/29 09:50:28;;;;;;;5.28;1.05;;;;;;;17.19;56.80;99307.22;5156305;27;20095;-84
2021/09/29 09:52:56;;;;;;;2.30;0.88;;;;;;;17.16;56.85;99319.47;5156147;27;20051;-84
2021/09/29 09:55:25;;;;;;;1.55;0.60;;;;;;;17.17;58.05;99315.69;5154380;27;20076;-83
2021/09/29 09:57:55;;;;;;;3.88;0.82;;;;;;;17.04;57.65;99310.28;5156283;27;20390;-83
2021/09/29 10:00:25;;;;;;;2.78;0.98;;;;;;;16.95;58.17;99320.72;5155895;27;20047;-84
2021/09/29 10:02:55;;;;;;;1.92;0.88;;;;;;;16.86;59.51;99306.41;5145796;27;20051;-83
2021/09/29 10:05:23;;;;;;;5.55;0.70;;;;;;;16.72;58.97;99304.81;5134937;27;20050;-83
2021/09/29 10:07:51;;;;;;;2.67;1.05;;;;;;;16.77;60.26;99302.22;5135564;27;20043;-84
2021/09/29 10:10:24;;;;;;;3.58;0.82;;;;;;;16.69;59.39;99299.75;5154425;27;20054;-83
2021/09/29 10:27:08;;;;;;;2.13;0.65;;;;;;;17.44;59.26;99299.78;5144910;27;20099;-83
2021/09/29 10:29:43;;;;;;;4.90;0.60;;;;;;;17.64;60.76;99296.00;5133769;27;20054;-83
2021/09/29 10:32:17;;;;;;;5.40;1.00;;;;;;;17.99;60.31;99292.66;5134867;27;20043;-83
2021/09/29 10:35:02;;;;;;;2.90;1.20;;;;;;;17.88;57.60;99280.50;5149591;27;20050;-83
2021/09/29 10:37:54;;;;;;;3.13;0.85;;;;;;;17.96;57.03;99269.22;5155149;27;20051;-83
2021/09/29 10:43:04;;;;;;;2.58;1.00;;;;;;;18.18;56.61;99274.22;5152414;27;20062;-83
2021/09/29 10:45:51;;;;;;;1.20;0.50;;;;;;;18.09;55.56;99276.47;5153404;27;20138;-83
2021/09/29 11:27:48;;;;;;;4.43;0.88;;;;;;;18.12;58.03;99253.97;5146568;27;20118;-83
2021/09/29 11:30:20;;;;;;;2.28;0.80;;;;;;;18.61;55.49;99262.19;5154165;27;20049;-83
2021/09/29 11:32:51;;;;;;;2.75;0.77;;;;;;;18.72;55.45;99266.06;5154369;27;20054;-83
2021/09/29 11:35:27;;;;;;;4.07;0.80;;;;;;;18.53;54.65;99244.09;5153488;27;20050;-84
2021/09/29 12:08:34;;;;;;;2.17;0.55;;;;;;;18.28;53.53;99215.91;5154191;27;20049;-84
2021/09/29 12:11:04;;;;;;;5.90;0.70;;;;;;;18.63;52.90;99199.47;5140945;27;20513;-85
2021/09/29 12:13:42;;;;;;;3.72;0.52;;;;;;;18.76;51.23;99220.44;5133715;27;20047;-84
2021/09/29 12:16:09;;;;;;;3.78;0.60;;;;;;;18.95;53.06;99221.19;5147558;27;20103;-85
2021/09/29 12:18:36;;;;;;;4.68;0.50;;;;;;;19.15;52.28;99214.50;5154193;27;20437;-84
2021/09/29 12:21:03;;;;;;;2.58;0.40;;;;;;;18.93;50.48;99212.34;5153649;27;20043;-84
2021/09/29 12:23:36;;;;;;;4.38;0.60;;;;;;;18.81;51.96;99205.97;5152843;27;20507;-87
2021/09/29 12:29:13;;;;;;;4.95;0.45;;;;;;;18.67;53.67;99210.84;5134816;27;20038;-85
2021/09/29 12:31:52;;;;;;;4.07;1.10;;;;;;;18.44;52.83;99200.63;5142552;27;20043;-85
2021/09/29 12:34:46;;;;;;;1.40;0.35;;;;;;;18.50;52.85;99206.03;5152781;27;20061;-85
2021/09/29 12:37:18;;;;;;;6.95;0.73;;;;;;;18.47;53.14;99198.25;5152972;27;20096;-85
2021/09/29 12:39:48;;;;;;;1.88;0.45;;;;;;;18.95;53.10;99201.09;5152669;27;20054;-84
2021/09/29 12:42:16;;;;;;;1.35;0.50;;;;;;;18.80;50.58;99190.50;5153487;27;20050;-84
2021/09/29 12:47:59;;;;;;;5.28;0.47;;;;;;;18.67;51.09;99195.16;5144586;27;20047;-83
2021/09/29 12:50:34;;;;;;;1.40;0.52;;;;;;;18.61;53.47;99192.50;5153547;27;20047;-84
2021/09/29 12:53:05;;;;;;;5.38;0.60;;;;;;;18.49;52.37;99211.78;5154911;27;20413;-85
2021/09/29 12:55:37;;;;;;;1.60;0.60;;;;;;;18.20;52.54;99187.66;5136376;27;20051;-85
2021/09/29 12:58:57;;;;;;;1.25;0.45;;;;;;;18.10;54.30;99198.38;5140494;27;20046;-84
2021/09/29 13:01:24;;;;;;;0.45;0.28;;;;;;;18.27;55.30;99208.72;5150457;27;20056;-85
2021/09/29 13:03:51;;;;;;;6.75;0.70;;;;;;;18.45;57.79;99211.41;5156082;27;20046;-84
2021/09/29 13:06:18;;;;;;;0.43;0.32;;;;;;;18.68;56.84;99231.78;5156000;27;20047;-84
2021/09/29 13:08:45;;;;;;;2.83;0.47;;;;;;;19.04;55.70;99224.44;5156803;27;20051;-84
2021/09/29 13:11:16;;;;;;;5.85;0.60;;;;;;;18.80;55.46;99218.03;5155120;27;20050;-85
2021/09/29 13:13:43;;;;;;;5.32;0.90;;;;;;;18.71;57.33;99226.66;5155940;27;20051;-84
2021/09/29 13:16:10;;;;;;;4.80;0.70;;;;;;;18.49;59.02;99223.63;5154598;27;20053;-84
2021/09/29 13:18:44;;;;;;;3.45;0.73;;;;;;;18.41;58.56;99234.94;5154928;27;20054;-84
2021/09/29 13:21:22;;;;;;;4.47;0.70;;;;;;;18.34;58.06;99231.47;5155336;27;20064;-86
2021/09/29 13:36:34;;;;;;;3.97;0.60;;;;;;;17.40;66.59;99268.31;5137383;27;20055;-85
2021/09/29 13:39:04;;;;;;;10.73;0.73;;;;;;;17.28;70.78;99287.50;5155979;27;20073;-87
2021/09/29 13:41:31;;;;;;;11.00;0.98;;;;;;;16.67;75.28;99293.66;5156692;27;20049;-88
2021/09/29 13:44:00;;;;;;;3.78;0.50;;;;;;;16.72;78.87;99305.63;5153433;27;20572;-87
2021/09/29 13:46:27;;;;;;;4.78;0.57;;;;;;;16.50;71.04;99310.66;5150355;27;20458;-86
2021/09/29 13:48:56;;;;;;;4.13;0.40;;;;;;;16.11;73.43;99334.47;5156554;27;20055;-85
2021/09/29 13:51:25;;;;;;;4.18;0.65;;;;;;;15.83;73.56;99352.03;5155255;27;20074;-87
2021/09/29 13:53:53;;;;;;;2.95;1.45;;;;;;;15.57;77.98;99355.66;5156387;27;20051;-85
2021/09/29 13:56:27;;;;;;;2.83;0.47;;;;;;;15.04;82.82;99389.38;5154287;27;20051;-88
2021/09/29 14:01:59;;;;;;;4.47;0.40;;;;;;;14.02;91.02;99430.19;5139308;27;20046;-86
2021/09/29 14:29:14;;;;;;;1.65;0.30;;;;;;;13.30;95.93;99447.69;5148105;27;20080;-83
2021/09/29 14:31:51;;;;;;;3.30;0.35;;;;;;;13.26;100.00;99448.09;5153881;27;20058;-83
2021/09/29 14:34:19;;;;;;;1.02;0.60;;;;;;;13.32;95.99;99429.22;5156165;27;20062;-83
2021/09/29 14:36:47;;;;;;;0.55;0.40;;;;;;;13.20;98.67;99429.75;5153684;27;20462;-83
2021/09/29 14:39:14;;;;;;;0.65;0.30;;;;;;;13.14;98.52;99435.97;5154143;27;20451;-81
2021/09/29 14:41:41;;;;;;;0.40;0.40;;;;;;;13.28;99.12;99451.44;5154938;27;20091;-82
2021/09/29 14:44:08;;;;;;;2.20;0.40;;;;;;;13.21;96.83;99433.31;5151897;27;20099;-82
2021/09/29 14:46:36;;;;;;;0.70;0.30;;;;;;;13.49;98.95;99462.56;5152489;27;20046;-83